createdAt,value
2022-12-08T00:02:49.181Z,30.50
2022-12-08T00:07:09.994Z,26.83
2022-12-08T00:11:13.534Z,36.73
2022-12-08T00:15:16.724Z,30.63
2022-12-08T00:19:21.533Z,35.07
2022-12-08T00:23:24.595Z,24.80
2022-12-08T00:27:27.640Z,27.57
2022-12-08T00:31:30.970Z,31.50
2022-12-08T00:36:10.565Z,37.37
2022-12-08T00:40:13.676Z,34.30
2022-12-08T00:44:19.662Z,38.33
2022-12-08T00:48:22.673Z,38.97
2022-12-08T00:52:27.095Z,37.47
2022-12-08T00:56:30.084Z,37.00
2022-12-08T01:00:33.162Z,30.67
2022-12-08T01:05:09.806Z,27.93
2022-12-08T01:09:15.970Z,39.77
2022-12-08T01:13:18.976Z,31.07
2022-12-08T01:17:22.012Z,34.60
2022-12-08T01:21:25.208Z,33.90
2022-12-08T01:25:29.654Z,36.80
2022-12-08T01:29:32.867Z,33.10
2022-12-08T01:33:35.890Z,34.43
2022-12-08T01:37:38.928Z,35.00
2022-12-08T01:41:45.054Z,34.90
2022-12-08T01:45:48.871Z,28.13
2022-12-08T01:49:51.973Z,33.47
2022-12-08T01:53:55.419Z,32.23
2022-12-08T01:58:04.446Z,37.80
2022-12-08T02:02:07.624Z,38.83
2022-12-08T02:06:11.256Z,37.37
2022-12-08T02:10:20.536Z,36.70
2022-12-08T02:14:52.737Z,36.27
2022-12-08T02:19:30.366Z,34.67
2022-12-08T02:23:39.726Z,36.13
2022-12-08T02:27:53.716Z,40.53
2022-12-08T02:32:11.638Z,37.37
2022-12-08T02:36:22.036Z,43.23
2022-12-08T02:40:31.791Z,40.90
2022-12-08T02:44:39.069Z,37.33
2022-12-08T02:49:09.463Z,41.10
2022-12-08T02:57:29.685Z,36.53
2022-12-08T03:01:54.060Z,36.00
2022-12-08T03:06:06.932Z,44.43
2022-12-08T03:10:17.403Z,42.93
2022-12-08T03:14:22.965Z,45.73
2022-12-08T03:18:30.236Z,47.60
2022-12-08T03:22:34.108Z,59.00
2022-12-08T03:26:49.035Z,48.90
2022-12-08T03:30:56.958Z,48.00
2022-12-08T03:35:03.047Z,47.27
2022-12-08T03:39:06.132Z,45.13
2022-12-08T03:43:11.102Z,51.33
2022-12-08T03:47:14.218Z,48.47
2022-12-08T03:51:17.911Z,40.30
2022-12-08T03:55:21.625Z,47.30
2022-12-08T03:59:26.084Z,47.43
2022-12-08T04:03:29.095Z,44.90
2022-12-08T04:07:32.175Z,44.73
2022-12-08T04:11:35.440Z,43.07
2022-12-08T04:15:39.887Z,45.17
2022-12-08T04:19:43.498Z,36.53
2022-12-08T04:23:47.152Z,39.00
2022-12-08T04:27:50.250Z,39.90
2022-12-08T04:31:54.750Z,47.87
2022-12-08T04:35:57.924Z,41.53
2022-12-08T04:40:01.055Z,39.30
2022-12-08T04:44:04.487Z,35.47
2022-12-08T04:48:09.741Z,36.47
2022-12-08T04:52:13.003Z,38.40
2022-12-08T04:56:17.061Z,30.13
2022-12-08T05:00:20.953Z,37.33
2022-12-08T05:04:25.861Z,33.83
2022-12-08T05:08:29.470Z,38.10
2022-12-08T05:12:32.744Z,35.47
2022-12-08T05:16:54.012Z,34.43
2022-12-08T05:20:58.532Z,32.13
2022-12-08T05:25:01.738Z,35.07
2022-12-08T05:29:04.949Z,37.07
2022-12-08T05:33:08.889Z,29.13
2022-12-08T05:37:13.407Z,32.20
2022-12-08T05:41:19.690Z,34.73
2022-12-08T05:45:22.731Z,32.60
2022-12-08T05:49:25.948Z,35.80
2022-12-08T05:53:30.467Z,30.13
2022-12-08T05:57:33.554Z,25.77
2022-12-08T06:01:36.795Z,30.27
2022-12-08T06:05:40.022Z,31.73
2022-12-08T06:09:44.685Z,29.43
2022-12-08T06:14:21.072Z,30.67
2022-12-08T06:18:58.476Z,28.83
2022-12-08T06:23:35.294Z,29.17
2022-12-08T06:28:13.644Z,29.07
2022-12-08T06:32:47.536Z,36.83
2022-12-08T06:36:50.613Z,29.57
2022-12-08T06:40:55.970Z,45.13
2022-12-08T06:45:31.003Z,45.13
2022-12-08T06:50:05.438Z,50.53
2022-12-08T06:54:39.420Z,91.70
2022-12-08T06:59:17.685Z,61.37
2022-12-08T07:03:22.138Z,394.50
2022-12-08T07:07:55.835Z,255.03
2022-12-08T07:12:32.847Z,121.30
2022-12-08T07:17:09.834Z,185.43
2022-12-08T07:21:46.452Z,46.97
2022-12-08T07:26:24.926Z,38.23
2022-12-08T07:30:58.950Z,37.50
2022-12-08T07:35:35.570Z,39.23
2022-12-08T07:39:38.688Z,36.10
2022-12-08T07:43:44.169Z,28.27
2022-12-08T07:48:18.448Z,38.07
2022-12-08T07:52:55.568Z,32.03
2022-12-08T07:57:32.268Z,35.63
2022-12-08T08:02:23.499Z,34.70
2022-12-08T08:06:48.014Z,29.60
2022-12-08T08:11:22.158Z,29.17
2022-12-08T08:16:03.904Z,28.33
2022-12-08T08:20:34.812Z,28.93
2022-12-08T08:25:12.896Z,27.27
2022-12-08T08:29:15.926Z,27.77
2022-12-08T08:33:18.978Z,32.50
2022-12-08T08:37:22.054Z,31.10
2022-12-08T08:41:58.926Z,31.57
2022-12-08T08:46:37.311Z,32.80
2022-12-08T08:51:11.753Z,32.03
2022-12-08T08:55:45.502Z,38.80
2022-12-08T09:00:22.349Z,31.43
2022-12-08T09:04:26.918Z,34.53
2022-12-08T09:09:01.031Z,35.03
2022-12-08T09:13:06.206Z,30.43
2022-12-08T09:17:39.891Z,31.80
2022-12-08T09:22:18.466Z,34.30
2022-12-08T09:26:52.204Z,27.63
2022-12-08T09:31:28.762Z,31.27
2022-12-08T09:36:06.076Z,25.17
2022-12-08T09:40:48.091Z,29.27
2022-12-08T09:44:59.949Z,27.70
2022-12-08T09:49:04.506Z,30.83
2022-12-08T09:53:40.444Z,30.47
2022-12-08T09:57:45.075Z,32.30
2022-12-08T10:02:22.171Z,26.77
2022-12-08T10:06:34.502Z,33.37
2022-12-08T10:10:43.113Z,25.63
2022-12-08T10:14:50.089Z,26.03
2022-12-08T10:19:23.951Z,29.57
2022-12-08T10:24:05.270Z,24.13
2022-12-08T10:28:10.684Z,30.57
2022-12-08T10:32:19.702Z,32.10
2022-12-08T10:36:22.774Z,29.73
2022-12-08T10:40:28.777Z,34.60
2022-12-08T10:45:05.267Z,26.10
2022-12-08T10:49:40.468Z,28.73
2022-12-08T10:54:25.793Z,29.23
2022-12-08T10:58:50.587Z,34.33
2022-12-08T11:03:29.441Z,35.90
2022-12-08T11:08:03.216Z,34.80
2022-12-08T11:12:18.837Z,38.63
2022-12-08T11:16:50.637Z,37.93
2022-12-08T11:21:37.252Z,41.70
2022-12-08T11:26:13.928Z,32.77
2022-12-08T11:30:44.705Z,39.80
2022-12-08T11:35:25.766Z,34.17
2022-12-08T11:39:30.802Z,28.73
2022-12-08T11:44:06.875Z,27.17
2022-12-08T11:48:40.260Z,26.50
2022-12-08T11:53:23.751Z,24.50
2022-12-08T11:57:51.936Z,25.27
2022-12-08T12:02:29.005Z,24.20
2022-12-08T12:07:26.822Z,25.70
2022-12-08T12:12:15.829Z,26.43
2022-12-08T12:16:51.878Z,26.23
2022-12-08T12:21:19.973Z,24.50
2022-12-08T12:25:52.364Z,26.07
2022-12-08T12:29:59.278Z,30.70
2022-12-08T12:34:34.516Z,31.67
2022-12-08T12:39:20.897Z,35.40
2022-12-08T12:44:06.542Z,57.20
2022-12-08T12:49:04.244Z,28.73
2022-12-08T12:53:44.617Z,27.10
2022-12-08T12:57:54.690Z,32.00
2022-12-08T13:02:25.863Z,24.83
2022-12-08T13:06:37.007Z,21.50
2022-12-08T13:10:41.429Z,15.00
2022-12-08T13:15:23.120Z,18.20
2022-12-08T13:19:53.698Z,19.33
2022-12-08T13:24:32.383Z,18.87
2022-12-08T13:29:12.538Z,20.10
2022-12-08T13:33:50.929Z,21.10
2022-12-08T13:38:27.548Z,20.97
2022-12-08T13:43:01.932Z,20.00
2022-12-08T13:47:41.453Z,16.70
2022-12-08T13:57:06.783Z,19.10
2022-12-08T14:01:13.974Z,14.70
2022-12-08T14:10:48.302Z,15.77
2022-12-08T14:15:03.013Z,15.17
2022-12-08T14:19:12.472Z,16.60
2022-12-08T14:23:18.743Z,15.57
2022-12-08T14:27:25.532Z,11.50
2022-12-08T14:31:59.222Z,14.03
2022-12-08T14:36:36.422Z,13.80
2022-12-08T14:40:41.382Z,12.63
2022-12-08T14:44:46.473Z,12.43
2022-12-08T14:48:49.573Z,11.67
2022-12-08T14:53:26.583Z,12.50
2022-12-08T14:57:35.892Z,11.83
2022-12-08T15:02:21.869Z,20.03
2022-12-08T15:06:26.366Z,12.17
2022-12-08T15:10:32.065Z,12.37
2022-12-08T15:15:16.849Z,23.63
2022-12-08T15:19:41.713Z,11.80
2022-12-08T15:23:47.316Z,25.27
2022-12-08T15:28:29.409Z,25.77
2022-12-08T15:32:33.193Z,32.80
2022-12-08T15:36:38.393Z,37.43
2022-12-08T15:41:15.189Z,36.27
2022-12-08T15:45:20.353Z,42.07
2022-12-08T15:49:25.240Z,31.37
2022-12-08T15:53:28.236Z,35.73
2022-12-08T15:58:30.762Z,34.73
2022-12-08T16:01:57.948Z,29.10
2022-12-08T16:07:12.805Z,34.57
2022-12-08T16:12:04.105Z,28.27
2022-12-08T16:15:55.118Z,29.07
2022-12-08T16:20:05.751Z,29.03
2022-12-08T16:24:09.600Z,30.07
2022-12-08T16:28:53.757Z,27.43
2022-12-08T16:32:57.570Z,30.20
2022-12-08T16:37:35.925Z,29.37
2022-12-08T16:41:56.545Z,37.53
2022-12-08T16:45:59.610Z,30.80
2022-12-08T16:50:05.986Z,39.20
2022-12-08T16:54:10.759Z,41.97
2022-12-08T16:58:44.466Z,34.80
2022-12-08T17:02:47.807Z,31.77
2022-12-08T17:07:21.722Z,53.77
2022-12-08T17:11:28.576Z,53.87
2022-12-08T17:15:31.614Z,48.33
2022-12-08T17:19:35.026Z,76.70
2022-12-08T17:23:38.513Z,67.70
2022-12-08T17:27:43.373Z,58.57
2022-12-08T17:31:46.468Z,52.23
2022-12-08T17:35:50.060Z,67.57
2022-12-08T17:39:53.201Z,74.83
2022-12-08T17:43:57.831Z,77.33
2022-12-08T17:48:00.865Z,75.37
2022-12-08T17:52:37.942Z,75.07
2022-12-08T17:56:40.960Z,64.67
2022-12-08T18:00:45.383Z,57.93
2022-12-08T18:05:19.143Z,65.47
2022-12-08T18:09:22.253Z,60.23
2022-12-08T18:13:25.922Z,62.70
2022-12-08T18:18:04.298Z,58.30
2022-12-08T18:22:07.508Z,56.60
2022-12-08T18:26:12.970Z,56.10
2022-12-08T18:30:18.402Z,51.87
2022-12-08T18:34:53.945Z,47.13
2022-12-08T18:38:57.185Z,60.37
2022-12-08T18:43:00.437Z,62.80
2022-12-08T18:47:03.503Z,58.03
2022-12-08T18:51:41.539Z,56.43
2022-12-08T18:55:46.743Z,54.23
2022-12-08T18:59:49.882Z,57.77
2022-12-08T19:04:20.102Z,59.47
2022-12-08T19:08:32.452Z,57.70
2022-12-08T19:13:07.171Z,69.97
2022-12-08T19:17:44.102Z,73.00
2022-12-08T19:21:47.093Z,66.40
2022-12-08T19:31:11.352Z,70.17
2022-12-08T19:35:50.715Z,67.00
2022-12-08T19:40:37.731Z,64.27
2022-12-08T19:44:55.892Z,67.10
2022-12-08T19:49:18.666Z,62.07
2022-12-08T19:53:52.697Z,74.97
2022-12-08T19:58:29.483Z,56.87
2022-12-08T20:03:06.581Z,60.27
2022-12-08T20:07:13.962Z,62.43
2022-12-08T20:11:17.030Z,66.30
2022-12-08T20:15:20.064Z,66.97
2022-12-08T20:19:23.116Z,62.40
2022-12-08T20:23:59.998Z,70.60
2022-12-08T20:28:04.847Z,71.00
2022-12-08T20:32:08.165Z,61.87
2022-12-08T20:36:45.042Z,65.33
2022-12-08T20:40:49.708Z,66.07
2022-12-08T20:44:54.201Z,58.60
2022-12-08T20:48:57.929Z,69.63
2022-12-08T20:53:01.037Z,79.97
2022-12-08T20:57:37.658Z,70.80
2022-12-08T21:01:42.295Z,63.30
2022-12-08T21:06:16.638Z,71.53
2022-12-08T21:10:54.165Z,87.30
2022-12-08T21:14:57.392Z,71.43
2022-12-08T21:19:02.048Z,78.40
2022-12-08T21:23:36.294Z,72.53
2022-12-08T21:27:40.032Z,67.60
2022-12-08T21:32:14.084Z,79.00
2022-12-08T21:36:21.838Z,74.33
2022-12-08T21:40:25.123Z,64.93
2022-12-08T21:44:29.388Z,83.77
2022-12-08T21:49:06.436Z,67.40
2022-12-08T21:53:10.987Z,73.83
2022-12-08T21:57:14.666Z,71.97
2022-12-08T22:01:49.402Z,70.10
2022-12-08T22:05:52.859Z,74.67
2022-12-08T22:09:57.536Z,77.80
2022-12-08T22:14:00.701Z,67.50
2022-12-08T22:18:04.816Z,67.73
2022-12-08T22:22:07.978Z,67.80
2022-12-08T22:26:13.073Z,66.20
2022-12-08T22:30:16.361Z,72.47
2022-12-08T22:34:19.561Z,70.20
2022-12-08T22:38:56.503Z,68.90
2022-12-08T22:43:00.934Z,67.63
2022-12-08T22:47:04.216Z,67.50
2022-12-08T22:51:40.735Z,70.07
2022-12-08T22:55:44.737Z,59.13
2022-12-08T22:59:49.436Z,62.13
2022-12-08T23:03:52.649Z,68.10
2022-12-08T23:07:56.178Z,59.27
2022-12-08T23:11:59.301Z,62.87
2022-12-08T23:16:35.437Z,58.60
2022-12-08T23:20:38.746Z,66.33
2022-12-08T23:24:41.925Z,62.50
2022-12-08T23:28:45.301Z,62.77
2022-12-08T23:32:50.071Z,73.53
2022-12-08T23:36:53.253Z,64.70
2022-12-08T23:40:56.365Z,69.10
2022-12-08T23:44:59.434Z,73.87
2022-12-08T23:49:03.908Z,70.10
2022-12-08T23:53:41.229Z,58.77
2022-12-08T23:57:44.599Z,70.73
